sensor_id;sensor_type;location;lat;lon;timestamp;P1;durP1;ratioP1;P2;durP2;ratioP2
12459;SDS011;6295;49.452;8.466;2022-07-05T00:02:19;3.60;;;1.57;;
12459;SDS011;6295;49.452;8.466;2022-07-05T00:06:22;2.73;;;1.60;;
12459;SDS011;6295;49.452;8.466;2022-07-05T00:10:24;2.13;;;1.60;;
12459;SDS011;6295;49.452;8.466;2022-07-05T00:14:26;3.23;;;1.60;;
12459;SDS011;6295;49.452;8.466;2022-07-05T00:18:30;2.67;;;1.80;;
12459;SDS011;6295;49.452;8.466;2022-07-05T00:22:32;1.70;;;1.60;;
12459;SDS011;6295;49.452;8.466;2022-07-05T00:26:34;3.30;;;2.00;;
12459;SDS011;6295;49.452;8.466;2022-07-05T00:30:37;3.60;;;1.60;;
12459;SDS011;6295;49.452;8.466;2022-07-05T00:34:40;1.90;;;1.70;;
12459;SDS011;6295;49.452;8.466;2022-07-05T00:38:43;2.53;;;1.83;;
12459;SDS011;6295;49.452;8.466;2022-07-05T00:42:45;3.93;;;1.50;;
12459;SDS011;6295;49.452;8.466;2022-07-05T00:46:47;2.50;;;1.77;;
12459;SDS011;6295;49.452;8.466;2022-07-05T00:50:51;2.97;;;1.77;;
12459;SDS011;6295;49.452;8.466;2022-07-05T00:54:54;2.93;;;1.70;;
12459;SDS011;6295;49.452;8.466;2022-07-05T00:58:56;2.60;;;1.70;;
12459;SDS011;6295;49.452;8.466;2022-07-05T01:02:58;4.20;;;1.80;;
12459;SDS011;6295;49.452;8.466;2022-07-05T01:07:02;4.40;;;1.73;;
12459;SDS011;6295;49.452;8.466;2022-07-05T01:11:06;3.60;;;1.67;;
12459;SDS011;6295;49.452;8.466;2022-07-05T01:15:09;3.17;;;1.83;;
12459;SDS011;6295;49.452;8.466;2022-07-05T01:19:11;2.77;;;2.00;;
12459;SDS011;6295;49.452;8.466;2022-07-05T01:23:16;2.60;;;2.23;;
12459;SDS011;6295;49.452;8.466;2022-07-05T01:27:19;5.20;;;2.23;;
12459;SDS011;6295;49.452;8.466;2022-07-05T01:31:22;3.73;;;2.40;;
12459;SDS011;6295;49.452;8.466;2022-07-05T01:35:24;3.50;;;2.00;;
12459;SDS011;6295;49.452;8.466;2022-07-05T01:39:27;3.30;;;1.87;;
12459;SDS011;6295;49.452;8.466;2022-07-05T01:43:30;3.17;;;1.83;;
12459;SDS011;6295;49.452;8.466;2022-07-05T01:47:32;4.20;;;2.00;;
12459;SDS011;6295;49.452;8.466;2022-07-05T01:51:39;3.23;;;2.10;;
12459;SDS011;6295;49.452;8.466;2022-07-05T01:55:47;2.43;;;1.80;;
12459;SDS011;6295;49.452;8.466;2022-07-05T01:59:50;3.70;;;2.03;;
12459;SDS011;6295;49.452;8.466;2022-07-05T02:03:52;2.80;;;2.10;;
12459;SDS011;6295;49.452;8.466;2022-07-05T02:07:54;1.83;;;1.73;;
12459;SDS011;6295;49.452;8.466;2022-07-05T02:11:58;4.23;;;2.13;;
12459;SDS011;6295;49.452;8.466;2022-07-05T02:16:00;2.80;;;2.17;;
12459;SDS011;6295;49.452;8.466;2022-07-05T02:20:03;4.60;;;2.03;;
12459;SDS011;6295;49.452;8.466;2022-07-05T02:24:06;3.20;;;2.13;;
12459;SDS011;6295;49.452;8.466;2022-07-05T02:28:10;2.90;;;2.07;;
12459;SDS011;6295;49.452;8.466;2022-07-05T02:32:13;3.37;;;2.00;;
12459;SDS011;6295;49.452;8.466;2022-07-05T02:36:16;2.10;;;2.00;;
12459;SDS011;6295;49.452;8.466;2022-07-05T02:40:18;2.30;;;2.10;;
12459;SDS011;6295;49.452;8.466;2022-07-05T02:44:22;4.20;;;2.10;;
12459;SDS011;6295;49.452;8.466;2022-07-05T02:48:24;2.73;;;2.23;;
12459;SDS011;6295;49.452;8.466;2022-07-05T02:52:26;2.90;;;2.30;;
12459;SDS011;6295;49.452;8.466;2022-07-05T02:56:28;2.80;;;1.90;;
12459;SDS011;6295;49.452;8.466;2022-07-05T03:00:32;2.73;;;2.30;;
12459;SDS011;6295;49.452;8.466;2022-07-05T03:04:35;2.93;;;1.90;;
12459;SDS011;6295;49.452;8.466;2022-07-05T03:08:37;2.07;;;1.80;;
12459;SDS011;6295;49.452;8.466;2022-07-05T03:12:39;3.50;;;2.17;;
12459;SDS011;6295;49.452;8.466;2022-07-05T03:16:43;2.27;;;2.00;;
12459;SDS011;6295;49.452;8.466;2022-07-05T03:20:45;3.13;;;2.17;;
12459;SDS011;6295;49.452;8.466;2022-07-05T03:24:48;3.37;;;2.03;;
12459;SDS011;6295;49.452;8.466;2022-07-05T03:28:50;2.87;;;2.20;;
12459;SDS011;6295;49.452;8.466;2022-07-05T03:32:53;3.17;;;2.20;;
12459;SDS011;6295;49.452;8.466;2022-07-05T03:36:56;2.70;;;2.30;;
12459;SDS011;6295;49.452;8.466;2022-07-05T03:40:58;2.87;;;2.17;;
12459;SDS011;6295;49.452;8.466;2022-07-05T03:45:00;2.93;;;2.20;;
12459;SDS011;6295;49.452;8.466;2022-07-05T03:49:04;2.30;;;2.10;;
12459;SDS011;6295;49.452;8.466;2022-07-05T03:53:06;2.50;;;2.30;;
12459;SDS011;6295;49.452;8.466;2022-07-05T03:57:08;4.50;;;2.33;;
12459;SDS011;6295;49.452;8.466;2022-07-05T04:01:10;3.27;;;2.20;;
12459;SDS011;6295;49.452;8.466;2022-07-05T04:05:14;2.43;;;2.23;;
12459;SDS011;6295;49.452;8.466;2022-07-05T04:09:17;2.67;;;2.47;;
12459;SDS011;6295;49.452;8.466;2022-07-05T04:13:19;2.57;;;2.37;;
12459;SDS011;6295;49.452;8.466;2022-07-05T04:17:21;4.20;;;2.57;;
12459;SDS011;6295;49.452;8.466;2022-07-05T04:21:25;2.93;;;2.50;;
12459;SDS011;6295;49.452;8.466;2022-07-05T04:25:27;3.47;;;2.50;;
12459;SDS011;6295;49.452;8.466;2022-07-05T04:29:30;3.13;;;2.40;;
12459;SDS011;6295;49.452;8.466;2022-07-05T04:33:33;2.93;;;2.60;;
12459;SDS011;6295;49.452;8.466;2022-07-05T04:37:36;3.50;;;2.50;;
12459;SDS011;6295;49.452;8.466;2022-07-05T04:41:39;2.73;;;2.50;;
12459;SDS011;6295;49.452;8.466;2022-07-05T04:45:42;4.23;;;2.47;;
12459;SDS011;6295;49.452;8.466;2022-07-05T04:49:45;5.83;;;2.60;;
12459;SDS011;6295;49.452;8.466;2022-07-05T04:53:48;2.80;;;2.40;;
12459;SDS011;6295;49.452;8.466;2022-07-05T04:57:51;3.60;;;2.40;;
12459;SDS011;6295;49.452;8.466;2022-07-05T05:01:53;4.17;;;2.50;;
12459;SDS011;6295;49.452;8.466;2022-07-05T05:05:55;2.63;;;2.30;;
12459;SDS011;6295;49.452;8.466;2022-07-05T05:09:59;3.23;;;2.37;;
12459;SDS011;6295;49.452;8.466;2022-07-05T05:14:01;5.90;;;2.50;;
12459;SDS011;6295;49.452;8.466;2022-07-05T05:18:03;4.87;;;2.33;;
12459;SDS011;6295;49.452;8.466;2022-07-05T05:22:06;3.77;;;2.33;;
12459;SDS011;6295;49.452;8.466;2022-07-05T05:26:09;4.53;;;2.50;;
12459;SDS011;6295;49.452;8.466;2022-07-05T05:30:12;4.17;;;2.57;;
12459;SDS011;6295;49.452;8.466;2022-07-05T05:34:15;4.40;;;2.20;;
12459;SDS011;6295;49.452;8.466;2022-07-05T05:38:17;4.03;;;2.80;;
12459;SDS011;6295;49.452;8.466;2022-07-05T05:42:21;5.63;;;2.40;;
12459;SDS011;6295;49.452;8.466;2022-07-05T05:46:23;5.30;;;2.40;;
12459;SDS011;6295;49.452;8.466;2022-07-05T05:50:26;7.00;;;2.67;;
12459;SDS011;6295;49.452;8.466;2022-07-05T05:54:30;3.00;;;2.20;;
12459;SDS011;6295;49.452;8.466;2022-07-05T05:58:33;5.57;;;2.93;;
12459;SDS011;6295;49.452;8.466;2022-07-05T06:02:36;4.97;;;2.43;;
12459;SDS011;6295;49.452;8.466;2022-07-05T06:06:38;5.47;;;3.10;;
12459;SDS011;6295;49.452;8.466;2022-07-05T06:10:40;6.63;;;2.47;;
12459;SDS011;6295;49.452;8.466;2022-07-05T06:14:44;6.80;;;2.60;;
12459;SDS011;6295;49.452;8.466;2022-07-05T06:18:46;7.47;;;2.80;;
12459;SDS011;6295;49.452;8.466;2022-07-05T06:22:49;6.73;;;2.87;;
12459;SDS011;6295;49.452;8.466;2022-07-05T06:26:53;7.27;;;2.77;;
12459;SDS011;6295;49.452;8.466;2022-07-05T06:30:58;3.70;;;2.53;;
12459;SDS011;6295;49.452;8.466;2022-07-05T06:35:02;3.60;;;2.43;;
12459;SDS011;6295;49.452;8.466;2022-07-05T06:39:06;6.03;;;3.03;;
12459;SDS011;6295;49.452;8.466;2022-07-05T06:43:10;5.93;;;2.60;;
12459;SDS011;6295;49.452;8.466;2022-07-05T06:47:17;6.23;;;2.57;;
12459;SDS011;6295;49.452;8.466;2022-07-05T06:51:20;6.87;;;2.57;;
12459;SDS011;6295;49.452;8.466;2022-07-05T06:55:23;7.03;;;3.00;;
12459;SDS011;6295;49.452;8.466;2022-07-05T06:59:26;5.87;;;2.53;;
12459;SDS011;6295;49.452;8.466;2022-07-05T07:03:30;4.80;;;2.70;;
12459;SDS011;6295;49.452;8.466;2022-07-05T07:07:33;5.03;;;3.00;;
12459;SDS011;6295;49.452;8.466;2022-07-05T07:11:53;6.07;;;2.73;;
12459;SDS011;6295;49.452;8.466;2022-07-05T07:15:56;3.97;;;2.63;;
12459;SDS011;6295;49.452;8.466;2022-07-05T07:19:59;4.30;;;2.50;;
12459;SDS011;6295;49.452;8.466;2022-07-05T07:24:02;5.50;;;2.80;;
12459;SDS011;6295;49.452;8.466;2022-07-05T07:28:04;4.80;;;2.50;;
12459;SDS011;6295;49.452;8.466;2022-07-05T07:32:07;3.80;;;2.60;;
12459;SDS011;6295;49.452;8.466;2022-07-05T07:36:11;3.13;;;2.30;;
12459;SDS011;6295;49.452;8.466;2022-07-05T07:40:14;3.13;;;2.50;;
12459;SDS011;6295;49.452;8.466;2022-07-05T07:44:18;3.03;;;2.63;;
12459;SDS011;6295;49.452;8.466;2022-07-05T07:48:22;4.10;;;2.60;;
12459;SDS011;6295;49.452;8.466;2022-07-05T07:52:27;2.60;;;2.30;;
12459;SDS011;6295;49.452;8.466;2022-07-05T07:56:33;5.00;;;2.60;;
12459;SDS011;6295;49.452;8.466;2022-07-05T08:00:35;3.03;;;2.40;;
12459;SDS011;6295;49.452;8.466;2022-07-05T08:04:38;9.43;;;3.13;;
12459;SDS011;6295;49.452;8.466;2022-07-05T08:08:42;4.73;;;2.80;;
12459;SDS011;6295;49.452;8.466;2022-07-05T08:12:45;6.40;;;2.80;;
12459;SDS011;6295;49.452;8.466;2022-07-05T08:16:48;3.53;;;2.30;;
12459;SDS011;6295;49.452;8.466;2022-07-05T08:20:52;4.47;;;2.37;;
12459;SDS011;6295;49.452;8.466;2022-07-05T08:25:13;3.63;;;2.10;;
12459;SDS011;6295;49.452;8.466;2022-07-05T08:29:17;6.47;;;2.30;;
12459;SDS011;6295;49.452;8.466;2022-07-05T08:33:20;3.20;;;2.30;;
12459;SDS011;6295;49.452;8.466;2022-07-05T08:37:25;2.50;;;2.10;;
12459;SDS011;6295;49.452;8.466;2022-07-05T08:41:31;4.10;;;2.70;;
12459;SDS011;6295;49.452;8.466;2022-07-05T08:45:37;3.83;;;2.10;;
12459;SDS011;6295;49.452;8.466;2022-07-05T08:49:42;5.10;;;2.20;;
12459;SDS011;6295;49.452;8.466;2022-07-05T08:53:50;3.80;;;2.10;;
12459;SDS011;6295;49.452;8.466;2022-07-05T08:57:57;4.97;;;2.37;;
12459;SDS011;6295;49.452;8.466;2022-07-05T09:02:00;2.93;;;2.00;;
12459;SDS011;6295;49.452;8.466;2022-07-05T09:06:04;4.80;;;2.30;;
12459;SDS011;6295;49.452;8.466;2022-07-05T09:10:09;4.00;;;2.20;;
12459;SDS011;6295;49.452;8.466;2022-07-05T09:14:21;4.63;;;2.30;;
12459;SDS011;6295;49.452;8.466;2022-07-05T09:18:40;4.33;;;2.00;;
12459;SDS011;6295;49.452;8.466;2022-07-05T09:22:44;3.27;;;2.00;;
12459;SDS011;6295;49.452;8.466;2022-07-05T09:26:48;3.77;;;2.00;;
12459;SDS011;6295;49.452;8.466;2022-07-05T09:30:54;3.53;;;2.13;;
12459;SDS011;6295;49.452;8.466;2022-07-05T09:34:57;2.33;;;1.70;;
12459;SDS011;6295;49.452;8.466;2022-07-05T09:39:00;2.90;;;1.60;;
12459;SDS011;6295;49.452;8.466;2022-07-05T09:43:13;3.43;;;1.90;;
12459;SDS011;6295;49.452;8.466;2022-07-05T09:47:18;1.80;;;1.50;;
12459;SDS011;6295;49.452;8.466;2022-07-05T09:51:21;2.77;;;2.03;;
12459;SDS011;6295;49.452;8.466;2022-07-05T09:55:24;2.40;;;1.80;;
12459;SDS011;6295;49.452;8.466;2022-07-05T09:59:27;2.23;;;1.70;;
12459;SDS011;6295;49.452;8.466;2022-07-05T10:03:31;3.07;;;1.63;;
12459;SDS011;6295;49.452;8.466;2022-07-05T10:07:52;3.17;;;1.80;;
12459;SDS011;6295;49.452;8.466;2022-07-05T10:11:55;2.37;;;1.83;;
12459;SDS011;6295;49.452;8.466;2022-07-05T10:15:58;3.20;;;2.00;;
12459;SDS011;6295;49.452;8.466;2022-07-05T10:20:02;2.83;;;2.00;;
12459;SDS011;6295;49.452;8.466;2022-07-05T10:24:07;3.77;;;1.90;;
12459;SDS011;6295;49.452;8.466;2022-07-05T10:28:12;2.10;;;1.70;;
12459;SDS011;6295;49.452;8.466;2022-07-05T10:32:15;3.30;;;1.87;;
12459;SDS011;6295;49.452;8.466;2022-07-05T10:36:22;2.47;;;2.10;;
12459;SDS011;6295;49.452;8.466;2022-07-05T10:40:26;3.77;;;1.90;;
12459;SDS011;6295;49.452;8.466;2022-07-05T10:44:32;3.07;;;1.90;;
12459;SDS011;6295;49.452;8.466;2022-07-05T10:48:38;2.33;;;2.07;;
12459;SDS011;6295;49.452;8.466;2022-07-05T10:52:42;2.33;;;1.80;;
12459;SDS011;6295;49.452;8.466;2022-07-05T11:05:44;2.93;;;1.60;;
12459;SDS011;6295;49.452;8.466;2022-07-05T11:09:59;3.20;;;1.90;;
12459;SDS011;6295;49.452;8.466;2022-07-05T11:18:30;3.73;;;2.30;;
12459;SDS011;6295;49.452;8.466;2022-07-05T11:22:34;2.60;;;1.80;;
12459;SDS011;6295;49.452;8.466;2022-07-05T11:26:41;2.80;;;2.00;;
12459;SDS011;6295;49.452;8.466;2022-07-05T11:30:46;2.40;;;1.70;;
12459;SDS011;6295;49.452;8.466;2022-07-05T11:34:50;1.93;;;1.70;;
12459;SDS011;6295;49.452;8.466;2022-07-05T11:39:07;1.53;;;1.40;;
12459;SDS011;6295;49.452;8.466;2022-07-05T11:43:14;1.93;;;1.73;;
12459;SDS011;6295;49.452;8.466;2022-07-05T11:47:26;1.93;;;1.73;;
12459;SDS011;6295;49.452;8.466;2022-07-05T11:51:29;2.53;;;1.70;;
12459;SDS011;6295;49.452;8.466;2022-07-05T11:55:31;2.33;;;1.70;;
12459;SDS011;6295;49.452;8.466;2022-07-05T11:59:35;3.20;;;1.70;;
12459;SDS011;6295;49.452;8.466;2022-07-05T12:03:37;2.37;;;1.77;;
12459;SDS011;6295;49.452;8.466;2022-07-05T12:07:47;2.30;;;1.40;;
12459;SDS011;6295;49.452;8.466;2022-07-05T12:11:50;2.73;;;1.80;;
12459;SDS011;6295;49.452;8.466;2022-07-05T12:16:12;2.47;;;1.80;;
12459;SDS011;6295;49.452;8.466;2022-07-05T12:20:19;2.83;;;1.70;;
12459;SDS011;6295;49.452;8.466;2022-07-05T12:24:22;3.97;;;2.00;;
12459;SDS011;6295;49.452;8.466;2022-07-05T12:28:25;2.00;;;1.77;;
12459;SDS011;6295;49.452;8.466;2022-07-05T12:32:29;2.47;;;1.90;;
12459;SDS011;6295;49.452;8.466;2022-07-05T12:36:32;3.47;;;1.80;;
12459;SDS011;6295;49.452;8.466;2022-07-05T12:40:35;2.77;;;1.63;;
12459;SDS011;6295;49.452;8.466;2022-07-05T12:44:38;3.03;;;1.87;;
12459;SDS011;6295;49.452;8.466;2022-07-05T12:48:42;1.90;;;1.70;;
12459;SDS011;6295;49.452;8.466;2022-07-05T12:57:29;2.63;;;1.97;;
12459;SDS011;6295;49.452;8.466;2022-07-05T13:01:49;3.07;;;1.70;;
12459;SDS011;6295;49.452;8.466;2022-07-05T13:06:02;2.27;;;1.77;;
12459;SDS011;6295;49.452;8.466;2022-07-05T13:10:17;1.83;;;1.60;;
12459;SDS011;6295;49.452;8.466;2022-07-05T13:14:20;4.63;;;1.80;;
12459;SDS011;6295;49.452;8.466;2022-07-05T13:18:23;3.30;;;1.80;;
12459;SDS011;6295;49.452;8.466;2022-07-05T13:22:28;2.97;;;1.80;;
12459;SDS011;6295;49.452;8.466;2022-07-05T13:26:30;2.10;;;1.80;;
12459;SDS011;6295;49.452;8.466;2022-07-05T13:30:33;2.27;;;1.60;;
12459;SDS011;6295;49.452;8.466;2022-07-05T13:34:35;1.80;;;1.70;;
12459;SDS011;6295;49.452;8.466;2022-07-05T13:38:39;2.57;;;1.90;;
12459;SDS011;6295;49.452;8.466;2022-07-05T13:42:41;2.27;;;1.80;;
12459;SDS011;6295;49.452;8.466;2022-07-05T13:46:43;2.00;;;1.80;;
12459;SDS011;6295;49.452;8.466;2022-07-05T13:50:45;2.43;;;1.80;;
12459;SDS011;6295;49.452;8.466;2022-07-05T13:54:49;2.30;;;1.93;;
12459;SDS011;6295;49.452;8.466;2022-07-05T13:58:51;2.63;;;1.77;;
12459;SDS011;6295;49.452;8.466;2022-07-05T14:02:54;2.17;;;1.97;;
12459;SDS011;6295;49.452;8.466;2022-07-05T14:06:56;3.90;;;1.80;;
12459;SDS011;6295;49.452;8.466;2022-07-05T14:11:00;3.97;;;1.80;;
12459;SDS011;6295;49.452;8.466;2022-07-05T14:15:03;2.80;;;1.73;;
12459;SDS011;6295;49.452;8.466;2022-07-05T14:19:05;3.83;;;1.83;;
12459;SDS011;6295;49.452;8.466;2022-07-05T14:23:08;1.90;;;1.70;;
12459;SDS011;6295;49.452;8.466;2022-07-05T14:27:12;2.23;;;1.80;;
12459;SDS011;6295;49.452;8.466;2022-07-05T14:31:14;2.57;;;1.70;;
12459;SDS011;6295;49.452;8.466;2022-07-05T14:35:17;2.90;;;1.73;;
12459;SDS011;6295;49.452;8.466;2022-07-05T14:39:20;2.07;;;1.60;;
12459;SDS011;6295;49.452;8.466;2022-07-05T14:43:24;2.27;;;1.50;;
12459;SDS011;6295;49.452;8.466;2022-07-05T14:47:27;2.00;;;1.50;;
12459;SDS011;6295;49.452;8.466;2022-07-05T14:51:29;2.33;;;1.90;;
12459;SDS011;6295;49.452;8.466;2022-07-05T14:55:32;2.33;;;1.70;;
12459;SDS011;6295;49.452;8.466;2022-07-05T14:59:37;1.73;;;1.57;;
12459;SDS011;6295;49.452;8.466;2022-07-05T15:03:40;1.93;;;1.80;;
12459;SDS011;6295;49.452;8.466;2022-07-05T15:07:42;1.50;;;1.40;;
12459;SDS011;6295;49.452;8.466;2022-07-05T15:11:46;1.60;;;1.50;;
12459;SDS011;6295;49.452;8.466;2022-07-05T15:15:50;2.03;;;1.70;;
12459;SDS011;6295;49.452;8.466;2022-07-05T15:19:53;2.73;;;1.60;;
12459;SDS011;6295;49.452;8.466;2022-07-05T15:23:57;1.90;;;1.70;;
12459;SDS011;6295;49.452;8.466;2022-07-05T15:28:01;1.70;;;1.60;;
12459;SDS011;6295;49.452;8.466;2022-07-05T15:32:06;1.70;;;1.60;;
12459;SDS011;6295;49.452;8.466;2022-07-05T15:36:09;2.30;;;1.70;;
12459;SDS011;6295;49.452;8.466;2022-07-05T15:40:12;1.67;;;1.57;;
12459;SDS011;6295;49.452;8.466;2022-07-05T15:44:14;2.63;;;1.80;;
12459;SDS011;6295;49.452;8.466;2022-07-05T15:48:18;1.70;;;1.53;;
12459;SDS011;6295;49.452;8.466;2022-07-05T15:52:20;1.73;;;1.63;;
12459;SDS011;6295;49.452;8.466;2022-07-05T15:56:23;2.03;;;1.70;;
12459;SDS011;6295;49.452;8.466;2022-07-05T16:00:26;1.80;;;1.70;;
12459;SDS011;6295;49.452;8.466;2022-07-05T16:04:29;3.00;;;1.87;;
12459;SDS011;6295;49.452;8.466;2022-07-05T16:08:31;2.03;;;1.57;;
12459;SDS011;6295;49.452;8.466;2022-07-05T16:12:34;1.93;;;1.70;;
12459;SDS011;6295;49.452;8.466;2022-07-05T16:16:37;2.87;;;1.90;;
12459;SDS011;6295;49.452;8.466;2022-07-05T16:20:41;2.93;;;1.93;;
12459;SDS011;6295;49.452;8.466;2022-07-05T16:24:44;2.13;;;1.93;;
12459;SDS011;6295;49.452;8.466;2022-07-05T16:28:48;1.90;;;1.80;;
12459;SDS011;6295;49.452;8.466;2022-07-05T16:32:52;2.93;;;1.60;;
12459;SDS011;6295;49.452;8.466;2022-07-05T16:36:58;3.47;;;2.70;;
12459;SDS011;6295;49.452;8.466;2022-07-05T16:41:05;4.67;;;3.07;;
12459;SDS011;6295;49.452;8.466;2022-07-05T16:45:08;3.80;;;1.70;;
12459;SDS011;6295;49.452;8.466;2022-07-05T16:49:10;2.43;;;1.70;;
12459;SDS011;6295;49.452;8.466;2022-07-05T16:53:14;1.60;;;1.50;;
12459;SDS011;6295;49.452;8.466;2022-07-05T16:57:17;2.03;;;1.50;;
12459;SDS011;6295;49.452;8.466;2022-07-05T17:01:19;2.23;;;1.50;;
12459;SDS011;6295;49.452;8.466;2022-07-05T17:05:24;2.27;;;1.60;;
12459;SDS011;6295;49.452;8.466;2022-07-05T17:09:29;2.03;;;1.70;;
12459;SDS011;6295;49.452;8.466;2022-07-05T17:13:32;3.80;;;1.60;;
12459;SDS011;6295;49.452;8.466;2022-07-05T17:17:38;2.90;;;1.93;;
12459;SDS011;6295;49.452;8.466;2022-07-05T17:21:41;2.00;;;1.73;;
12459;SDS011;6295;49.452;8.466;2022-07-05T17:25:45;5.70;;;1.80;;
12459;SDS011;6295;49.452;8.466;2022-07-05T17:29:47;2.60;;;1.70;;
12459;SDS011;6295;49.452;8.466;2022-07-05T17:33:50;3.30;;;1.60;;
12459;SDS011;6295;49.452;8.466;2022-07-05T17:37:52;3.50;;;1.87;;
12459;SDS011;6295;49.452;8.466;2022-07-05T17:41:56;2.60;;;1.60;;
12459;SDS011;6295;49.452;8.466;2022-07-05T17:45:58;3.13;;;1.90;;
12459;SDS011;6295;49.452;8.466;2022-07-05T17:50:02;2.00;;;1.77;;
12459;SDS011;6295;49.452;8.466;2022-07-05T17:54:04;3.00;;;1.67;;
12459;SDS011;6295;49.452;8.466;2022-07-05T17:58:08;3.77;;;1.70;;
12459;SDS011;6295;49.452;8.466;2022-07-05T18:02:11;1.87;;;1.57;;
12459;SDS011;6295;49.452;8.466;2022-07-05T18:06:13;1.80;;;1.60;;
12459;SDS011;6295;49.452;8.466;2022-07-05T18:10:17;3.57;;;1.60;;
12459;SDS011;6295;49.452;8.466;2022-07-05T18:14:21;1.73;;;1.60;;
12459;SDS011;6295;49.452;8.466;2022-07-05T18:18:24;4.83;;;1.50;;
12459;SDS011;6295;49.452;8.466;2022-07-05T18:22:27;2.03;;;1.60;;
12459;SDS011;6295;49.452;8.466;2022-07-05T18:26:31;2.07;;;1.70;;
12459;SDS011;6295;49.452;8.466;2022-07-05T18:30:37;3.67;;;1.70;;
12459;SDS011;6295;49.452;8.466;2022-07-05T18:34:41;1.90;;;1.80;;
12459;SDS011;6295;49.452;8.466;2022-07-05T18:38:43;3.00;;;1.90;;
12459;SDS011;6295;49.452;8.466;2022-07-05T18:42:45;4.00;;;2.27;;
12459;SDS011;6295;49.452;8.466;2022-07-05T18:46:49;3.20;;;2.53;;
12459;SDS011;6295;49.452;8.466;2022-07-05T18:50:51;4.70;;;3.03;;
12459;SDS011;6295;49.452;8.466;2022-07-05T18:54:54;4.33;;;3.00;;
12459;SDS011;6295;49.452;8.466;2022-07-05T18:58:57;7.33;;;2.90;;
12459;SDS011;6295;49.452;8.466;2022-07-05T19:03:00;3.57;;;3.27;;
12459;SDS011;6295;49.452;8.466;2022-07-05T19:07:03;3.30;;;3.00;;
12459;SDS011;6295;49.452;8.466;2022-07-05T19:11:22;3.67;;;3.37;;
12459;SDS011;6295;49.452;8.466;2022-07-05T19:15:42;3.43;;;3.13;;
12459;SDS011;6295;49.452;8.466;2022-07-05T19:19:46;4.37;;;3.40;;
12459;SDS011;6295;49.452;8.466;2022-07-05T19:23:48;3.87;;;3.47;;
12459;SDS011;6295;49.452;8.466;2022-07-05T19:27:50;4.57;;;3.00;;
12459;SDS011;6295;49.452;8.466;2022-07-05T19:31:53;4.03;;;2.63;;
12459;SDS011;6295;49.452;8.466;2022-07-05T19:35:57;5.57;;;2.90;;
12459;SDS011;6295;49.452;8.466;2022-07-05T19:39:59;4.17;;;2.50;;
12459;SDS011;6295;49.452;8.466;2022-07-05T19:44:03;3.67;;;2.60;;
12459;SDS011;6295;49.452;8.466;2022-07-05T19:48:07;4.33;;;2.80;;
12459;SDS011;6295;49.452;8.466;2022-07-05T19:52:12;3.40;;;2.80;;
12459;SDS011;6295;49.452;8.466;2022-07-05T19:56:16;3.57;;;2.53;;
12459;SDS011;6295;49.452;8.466;2022-07-05T20:00:19;2.70;;;2.50;;
12459;SDS011;6295;49.452;8.466;2022-07-05T20:04:21;6.43;;;2.77;;
12459;SDS011;6295;49.452;8.466;2022-07-05T20:08:25;2.73;;;2.50;;
12459;SDS011;6295;49.452;8.466;2022-07-05T20:12:27;3.87;;;2.50;;
12459;SDS011;6295;49.452;8.466;2022-07-05T20:16:30;4.60;;;2.60;;
12459;SDS011;6295;49.452;8.466;2022-07-05T20:20:33;3.73;;;2.30;;
12459;SDS011;6295;49.452;8.466;2022-07-05T20:24:37;3.93;;;2.60;;
12459;SDS011;6295;49.452;8.466;2022-07-05T20:28:41;2.80;;;2.40;;
12459;SDS011;6295;49.452;8.466;2022-07-05T20:32:44;3.23;;;2.93;;
12459;SDS011;6295;49.452;8.466;2022-07-05T20:36:47;3.80;;;3.03;;
12459;SDS011;6295;49.452;8.466;2022-07-05T20:40:51;4.10;;;2.90;;
12459;SDS011;6295;49.452;8.466;2022-07-05T20:44:54;3.07;;;2.80;;
12459;SDS011;6295;49.452;8.466;2022-07-05T20:48:57;3.53;;;3.10;;
12459;SDS011;6295;49.452;8.466;2022-07-05T20:52:59;3.17;;;2.83;;
12459;SDS011;6295;49.452;8.466;2022-07-05T20:57:03;4.43;;;2.90;;
12459;SDS011;6295;49.452;8.466;2022-07-05T21:01:06;4.30;;;3.03;;
12459;SDS011;6295;49.452;8.466;2022-07-05T21:05:08;3.40;;;2.63;;
12459;SDS011;6295;49.452;8.466;2022-07-05T21:09:11;4.27;;;2.80;;
12459;SDS011;6295;49.452;8.466;2022-07-05T21:13:15;5.20;;;2.93;;
12459;SDS011;6295;49.452;8.466;2022-07-05T21:17:17;7.10;;;3.27;;
12459;SDS011;6295;49.452;8.466;2022-07-05T21:21:19;3.10;;;2.80;;
12459;SDS011;6295;49.452;8.466;2022-07-05T21:25:22;3.50;;;3.20;;
12459;SDS011;6295;49.452;8.466;2022-07-05T21:29:25;3.47;;;2.90;;
12459;SDS011;6295;49.452;8.466;2022-07-05T21:33:28;3.73;;;2.87;;
12459;SDS011;6295;49.452;8.466;2022-07-05T21:37:30;5.27;;;3.00;;
12459;SDS011;6295;49.452;8.466;2022-07-05T21:41:32;4.57;;;3.10;;
12459;SDS011;6295;49.452;8.466;2022-07-05T21:45:36;3.80;;;2.97;;
12459;SDS011;6295;49.452;8.466;2022-07-05T21:49:38;4.57;;;2.97;;
12459;SDS011;6295;49.452;8.466;2022-07-05T21:53:40;3.07;;;2.77;;
12459;SDS011;6295;49.452;8.466;2022-07-05T21:57:43;5.30;;;2.70;;
12459;SDS011;6295;49.452;8.466;2022-07-05T22:01:46;3.90;;;2.50;;
12459;SDS011;6295;49.452;8.466;2022-07-05T22:06:06;3.53;;;2.57;;
12459;SDS011;6295;49.452;8.466;2022-07-05T22:10:08;2.87;;;2.30;;
12459;SDS011;6295;49.452;8.466;2022-07-05T22:14:10;2.40;;;2.20;;
12459;SDS011;6295;49.452;8.466;2022-07-05T22:18:14;2.47;;;2.13;;
12459;SDS011;6295;49.452;8.466;2022-07-05T22:22:16;3.00;;;2.17;;
12459;SDS011;6295;49.452;8.466;2022-07-05T22:26:19;3.37;;;2.30;;
12459;SDS011;6295;49.452;8.466;2022-07-05T22:30:21;2.83;;;2.10;;
12459;SDS011;6295;49.452;8.466;2022-07-05T22:34:25;2.33;;;2.10;;
12459;SDS011;6295;49.452;8.466;2022-07-05T22:38:27;2.50;;;2.30;;
12459;SDS011;6295;49.452;8.466;2022-07-05T22:42:29;2.77;;;2.33;;
12459;SDS011;6295;49.452;8.466;2022-07-05T22:46:31;5.47;;;2.60;;
12459;SDS011;6295;49.452;8.466;2022-07-05T22:50:35;2.80;;;2.50;;
12459;SDS011;6295;49.452;8.466;2022-07-05T22:54:37;3.50;;;2.63;;
12459;SDS011;6295;49.452;8.466;2022-07-05T23:13:47;4.00;;;3.20;;
12459;SDS011;6295;49.452;8.466;2022-07-05T23:17:49;5.60;;;3.10;;
12459;SDS011;6295;49.452;8.466;2022-07-05T23:21:51;5.00;;;2.67;;
12459;SDS011;6295;49.452;8.466;2022-07-05T23:25:53;3.63;;;2.80;;
12459;SDS011;6295;49.452;8.466;2022-07-05T23:29:56;3.43;;;2.60;;
12459;SDS011;6295;49.452;8.466;2022-07-05T23:33:59;3.00;;;2.70;;
12459;SDS011;6295;49.452;8.466;2022-07-05T23:38:01;3.33;;;2.90;;
12459;SDS011;6295;49.452;8.466;2022-07-05T23:42:04;3.77;;;3.10;;
12459;SDS011;6295;49.452;8.466;2022-07-05T23:46:08;3.43;;;3.10;;
12459;SDS011;6295;49.452;8.466;2022-07-05T23:50:10;3.67;;;3.00;;
12459;SDS011;6295;49.452;8.466;2022-07-05T23:54:12;4.53;;;3.13;;
12459;SDS011;6295;49.452;8.466;2022-07-05T23:58:14;4.17;;;3.40;;
